createdAt,value
2019-02-11T00:08:55.751Z,99015.42
2019-02-11T00:12:01.309Z,99012.55
2019-02-11T00:19:37.813Z,99015.67
2019-02-11T00:25:09.423Z,99015.09
2019-02-11T00:44:57.066Z,99027.16
2019-02-11T00:54:42.126Z,99043.16
2019-02-11T00:57:51.915Z,99040.91
2019-02-11T01:00:52.522Z,99038.28
2019-02-11T01:05:30.941Z,99043.66
2019-02-11T01:06:47.784Z,99037.78
2019-02-11T01:09:46.820Z,99037.19
2019-02-11T01:32:13.742Z,99034.63
2019-02-11T01:51:12.856Z,99034.34
2019-02-11T01:58:37.617Z,99032.64
2019-02-11T02:05:26.862Z,99028.23
2019-02-11T02:08:13.300Z,99026.33
2019-02-11T02:11:18.336Z,99015.33
2019-02-11T02:20:38.489Z,99030.73
2019-02-11T02:26:18.136Z,99044.80
2019-02-11T02:50:51.182Z,99030.73
2019-02-11T02:53:33.204Z,99039.04
2019-02-11T02:59:56.606Z,99028.03
2019-02-11T03:05:38.420Z,99033.11
2019-02-11T03:09:08.200Z,99028.58
2019-02-11T03:14:37.532Z,99036.58
2019-02-11T03:27:40.152Z,99049.48
2019-02-11T04:15:45.933Z,99048.48
2019-02-11T04:18:53.100Z,99050.52
2019-02-11T04:22:23.089Z,99049.58
2019-02-11T07:33:41.835Z,99193.72
2019-02-11T07:46:35.254Z,99228.70
2019-02-11T07:56:07.646Z,99265.23
2019-02-11T11:01:27.355Z,99577.95
2019-02-11T11:10:47.477Z,99595.75
2019-02-11T11:16:50.557Z,99614.50
2019-02-11T11:19:17.378Z,99608.85
2019-02-11T11:21:48.270Z,99617.00
2019-02-11T11:24:19.195Z,99625.33
2019-02-11T11:26:50.080Z,99627.59
2019-02-11T11:29:20.996Z,99637.22
2019-02-11T11:31:51.892Z,99640.87
2019-02-11T11:34:22.908Z,99641.99
2019-02-11T11:36:53.807Z,99649.58
2019-02-11T11:39:25.518Z,99642.91
2019-02-11T11:41:56.680Z,99661.75
2019-02-11T11:44:27.909Z,99664.27
2019-02-11T11:46:59.413Z,99665.41
2019-02-11T11:49:30.543Z,99667.47
2019-02-11T11:52:01.716Z,99677.38
2019-02-11T11:54:32.918Z,99683.95
2019-02-11T11:57:04.556Z,99687.88
2019-02-11T11:59:35.735Z,99684.52
2019-02-11T12:02:07.153Z,99696.48
2019-02-11T12:04:38.534Z,99693.23
2019-02-11T12:07:13.503Z,99700.99
2019-02-11T12:09:44.558Z,99714.00
2019-02-11T12:12:17.599Z,99711.75
2019-02-11T12:14:48.803Z,99712.23
2019-02-11T12:17:19.799Z,99717.84
2019-02-11T12:19:50.970Z,99725.73
2019-02-11T12:22:23.056Z,99731.50
2019-02-11T12:24:54.331Z,99728.35
2019-02-11T12:27:25.404Z,99732.83
2019-02-11T12:29:56.600Z,99743.86
2019-02-11T12:32:27.742Z,99743.86
2019-02-11T12:34:59.083Z,99749.20
2019-02-11T12:37:30.205Z,99761.29
2019-02-11T12:40:01.362Z,99768.77
2019-02-11T12:42:32.476Z,99771.94
2019-02-11T12:45:04.105Z,99776.14
2019-02-11T12:47:35.351Z,99779.22
2019-02-11T12:50:09.592Z,99781.48
2019-02-11T12:52:41.618Z,99780.53
2019-02-11T12:55:16.477Z,99786.30
2019-02-11T12:57:47.475Z,99793.05
2019-02-11T13:00:21.349Z,99807.50
2019-02-11T13:02:52.228Z,99811.50
2019-02-11T13:05:40.222Z,99813.06
2019-02-11T13:07:55.773Z,99821.19
2019-02-11T13:10:26.710Z,99829.34
2019-02-11T13:12:57.604Z,99825.58
2019-02-11T13:15:53.906Z,99830.91
2019-02-11T13:18:01.217Z,99832.59
2019-02-11T13:20:32.255Z,99840.03
2019-02-11T13:23:03.219Z,99849.40
2019-02-11T13:25:34.134Z,99862.50
2019-02-11T13:28:05.032Z,99865.64
2019-02-11T13:30:35.957Z,99866.80
2019-02-11T13:33:07.226Z,99880.30
2019-02-11T13:35:38.238Z,99885.39
2019-02-11T13:38:09.145Z,99893.81
2019-02-11T13:40:40.054Z,99901.72
2019-02-11T13:43:10.983Z,99911.14
2019-02-11T13:45:41.904Z,99918.06
2019-02-11T13:48:12.803Z,99925.61
2019-02-11T13:50:43.832Z,99934.78
2019-02-11T13:53:14.836Z,99940.09
2019-02-11T13:55:45.825Z,99951.27
2019-02-11T13:58:16.723Z,99959.75
2019-02-11T14:00:50.255Z,99961.00
2019-02-11T14:03:22.138Z,99960.79
2019-02-11T14:05:53.244Z,99975.56
2019-02-11T14:08:24.192Z,99984.38
2019-02-11T14:10:55.198Z,99987.21
2019-02-11T14:13:26.103Z,99989.43
2019-02-11T14:15:57.043Z,100003.64
2019-02-11T14:18:27.937Z,100000.13
2019-02-11T14:20:58.962Z,100016.00
2019-02-11T14:23:29.862Z,100021.80
2019-02-11T14:26:00.794Z,100025.62
2019-02-11T14:28:31.694Z,100039.89
2019-02-11T14:31:02.622Z,100049.00
2019-02-11T14:33:33.527Z,100053.31
2019-02-11T14:36:05.690Z,100054.00
2019-02-11T14:38:36.744Z,100060.00
2019-02-11T14:41:07.724Z,100056.32
2019-02-11T14:43:38.619Z,100066.31
2019-02-11T14:46:09.555Z,100081.44
2019-02-11T14:48:40.452Z,100080.25
2019-02-11T14:51:11.463Z,100086.59
2019-02-11T14:53:42.421Z,100106.77
2019-02-11T14:56:13.349Z,100110.41
2019-02-11T14:58:44.326Z,100106.26
2019-02-11T15:01:15.253Z,100120.67
2019-02-11T15:03:47.860Z,100121.44
2019-02-11T15:06:18.981Z,100137.09
2019-02-11T15:08:50.386Z,100136.00
2019-02-11T15:11:21.321Z,100140.71
2019-02-11T15:13:52.228Z,100152.13
2019-02-11T15:16:23.162Z,100154.59
2019-02-11T15:18:54.061Z,100151.42
2019-02-11T15:21:25.030Z,100155.36
2019-02-11T15:23:55.934Z,100169.83
2019-02-11T15:26:26.874Z,100175.30
2019-02-11T15:28:57.774Z,100181.70
2019-02-11T15:31:28.696Z,100193.19
2019-02-11T15:33:59.593Z,100194.50
2019-02-11T15:36:30.551Z,100193.73
2019-02-11T15:39:01.463Z,100199.87
2019-02-11T15:41:32.482Z,100215.05
2019-02-11T15:44:03.380Z,100218.98
2019-02-11T15:46:34.315Z,100225.31
2019-02-11T15:49:05.216Z,100216.19
2019-02-11T15:51:36.283Z,100226.12
2019-02-11T15:54:07.167Z,100225.12
2019-02-11T15:56:38.165Z,100229.81
2019-02-11T15:59:09.311Z,100238.68
2019-02-11T16:01:40.261Z,100253.30
2019-02-11T16:04:12.223Z,100255.23
2019-02-11T16:06:43.324Z,100256.14
2019-02-11T16:09:14.234Z,100269.24
2019-02-11T16:11:45.176Z,100283.52
2019-02-11T16:14:16.142Z,100290.30
2019-02-11T16:16:47.084Z,100299.47
2019-02-11T16:19:17.976Z,100293.32
2019-02-11T16:21:48.939Z,100301.84
2019-02-11T16:24:19.843Z,100308.16
2019-02-11T16:26:50.779Z,100325.83
2019-02-11T16:29:21.679Z,100331.44
2019-02-11T16:32:00.559Z,100337.30
2019-02-11T16:34:25.317Z,100341.14
2019-02-11T16:36:56.623Z,100355.31
2019-02-11T16:39:27.540Z,100361.77
2019-02-11T16:41:58.453Z,100369.10
2019-02-11T16:44:29.365Z,100369.42
2019-02-11T16:47:00.403Z,100382.92
2019-02-11T16:49:31.311Z,100374.00
2019-02-11T16:52:02.280Z,100393.24
2019-02-11T16:54:33.192Z,100396.02
2019-02-11T16:57:04.130Z,100404.25
2019-02-11T16:59:35.036Z,100408.47
2019-02-11T17:02:05.960Z,100411.74
2019-02-11T17:04:36.857Z,100405.73
2019-02-11T17:07:07.828Z,100407.94
2019-02-11T17:09:38.808Z,100417.97
2019-02-11T17:12:09.741Z,100409.25
2019-02-11T17:14:40.642Z,100420.05
2019-02-11T17:17:11.573Z,100420.37
2019-02-11T17:19:42.476Z,100424.76
2019-02-11T17:22:13.433Z,100433.23
2019-02-11T17:24:44.353Z,100438.39
2019-02-11T17:27:15.271Z,100443.63
2019-02-11T17:29:46.185Z,100440.16
2019-02-11T17:32:17.128Z,100446.95
2019-02-11T17:34:48.050Z,100458.73
2019-02-11T17:37:19.004Z,100466.08
2019-02-11T17:39:49.981Z,100480.99
2019-02-11T17:42:21.674Z,100486.47
2019-02-11T17:44:53.257Z,100499.11
2019-02-11T17:47:24.302Z,100491.94
2019-02-11T17:49:55.520Z,100498.92
2019-02-11T17:52:26.615Z,100509.63
2019-02-11T17:54:58.628Z,100521.35
2019-02-11T17:57:29.786Z,100520.73
2019-02-11T18:00:00.818Z,100523.46
2019-02-11T18:02:31.876Z,100527.14
2019-02-11T18:05:02.886Z,100530.69
2019-02-11T18:07:34.128Z,100536.88
2019-02-11T18:10:06.301Z,100533.67
2019-02-11T18:12:37.520Z,100539.92
2019-02-11T18:15:11.989Z,100541.20
2019-02-11T18:17:43.255Z,100548.90
2019-02-11T18:20:14.378Z,100544.35
2019-02-11T18:22:45.908Z,100546.92
2019-02-11T18:25:16.962Z,100556.46
2019-02-11T18:27:48.238Z,100563.41
2019-02-11T18:30:19.968Z,100578.96
2019-02-11T18:32:51.225Z,100582.70
2019-02-11T18:35:23.755Z,100590.00
2019-02-11T18:37:55.809Z,100598.53
2019-02-11T18:40:27.013Z,100598.80
2019-02-11T18:42:58.290Z,100608.75
2019-02-11T18:45:29.503Z,100610.32
2019-02-11T18:48:00.753Z,100611.59
2019-02-11T18:50:31.775Z,100611.30
2019-02-11T18:53:02.848Z,100614.97
2019-02-11T18:55:34.096Z,100619.94
2019-02-11T18:58:05.119Z,100619.80
2019-02-11T19:00:36.039Z,100616.54
2019-02-11T19:03:07.129Z,100617.55
2019-02-11T19:05:38.142Z,100627.63
2019-02-11T19:08:09.099Z,100631.77
2019-02-11T19:10:40.093Z,100639.17
2019-02-11T19:13:11.133Z,100648.62
2019-02-11T19:15:42.191Z,100671.61
2019-02-11T19:18:13.226Z,100671.44
2019-02-11T19:20:44.412Z,100671.47
2019-02-11T19:23:15.495Z,100682.61
2019-02-11T19:25:46.512Z,100678.42
2019-02-11T19:28:17.495Z,100693.34
2019-02-11T19:30:48.502Z,100698.93
2019-02-11T19:33:19.608Z,100722.98
2019-02-11T19:35:50.600Z,100728.02
2019-02-11T19:38:21.586Z,100730.06
2019-02-11T19:40:52.574Z,100734.78
2019-02-11T19:43:23.683Z,100741.95
2019-02-11T19:45:54.645Z,100752.73
2019-02-11T19:48:25.955Z,100748.87
2019-02-11T19:50:56.874Z,100742.20
2019-02-11T19:53:27.963Z,100757.53
2019-02-11T19:55:59.658Z,100761.74
2019-02-11T19:58:30.662Z,100770.09
2019-02-11T20:01:01.838Z,100775.32
2019-02-11T20:03:32.871Z,100785.16
2019-02-11T20:06:03.822Z,100783.46
2019-02-11T20:08:34.862Z,100786.31
2019-02-11T20:11:05.800Z,100801.04
2019-02-11T20:13:36.774Z,100799.44
2019-02-11T20:16:07.659Z,100822.95
2019-02-11T20:18:38.578Z,100817.39
2019-02-11T20:21:09.474Z,100823.84
2019-02-11T20:23:40.418Z,100822.16
2019-02-11T20:26:11.372Z,100826.59
2019-02-11T20:28:42.283Z,100835.59
2019-02-11T20:31:13.172Z,100845.55
2019-02-11T20:33:44.101Z,100847.33
2019-02-11T20:36:14.994Z,100853.86
2019-02-11T20:38:45.969Z,100865.06
2019-02-11T20:41:16.868Z,100863.75
2019-02-11T20:43:47.788Z,100875.06
2019-02-11T20:46:18.674Z,100874.20
2019-02-11T20:48:49.753Z,100875.92
2019-02-11T20:51:20.661Z,100879.62
2019-02-11T20:53:51.628Z,100893.58
2019-02-11T20:56:22.522Z,100895.19
2019-02-11T20:58:53.438Z,100902.22
2019-02-11T21:01:24.406Z,100896.20
2019-02-11T21:03:55.343Z,100900.41
2019-02-11T21:06:26.233Z,100904.84
2019-02-11T21:08:57.241Z,100904.92
2019-02-11T21:11:28.127Z,100918.09
2019-02-11T21:13:59.068Z,100920.59
2019-02-11T21:16:29.957Z,100927.12
2019-02-11T21:19:00.880Z,100927.63
2019-02-11T21:21:31.763Z,100933.27
2019-02-11T21:24:02.795Z,100925.02
2019-02-11T21:26:33.762Z,100932.35
2019-02-11T21:29:04.689Z,100927.12
2019-02-11T21:31:36.934Z,100936.77
2019-02-11T21:34:08.056Z,100942.55
2019-02-11T21:36:38.946Z,100938.58
2019-02-11T21:39:10.252Z,100937.11
2019-02-11T21:41:41.144Z,100942.91
2019-02-11T21:44:12.057Z,100950.75
2019-02-11T21:46:42.957Z,100945.41
2019-02-11T21:49:13.875Z,100953.25
2019-02-11T21:51:44.770Z,100952.64
2019-02-11T21:54:15.748Z,100952.06
2019-02-11T21:56:47.438Z,100959.90
2019-02-11T21:59:18.441Z,100957.36
2019-02-11T22:01:49.339Z,100960.92
2019-02-11T22:04:20.334Z,100966.70
2019-02-11T22:06:51.242Z,100968.81
2019-02-11T22:09:22.182Z,100969.31
2019-02-11T22:11:53.076Z,100977.61
2019-02-11T22:14:23.998Z,100987.12
2019-02-11T22:16:54.886Z,100994.52
2019-02-11T22:19:25.814Z,100996.63
2019-02-11T22:21:56.690Z,100996.13
2019-02-11T22:24:27.866Z,101001.35
2019-02-11T22:26:58.749Z,100996.13
2019-02-11T22:29:29.668Z,101001.05
2019-02-11T22:32:00.569Z,101006.95
2019-02-11T22:34:32.995Z,101003.86
2019-02-11T22:37:07.498Z,101001.38
2019-02-11T22:39:38.781Z,101007.91
2019-02-11T22:42:09.673Z,101010.13
2019-02-11T22:44:40.827Z,101013.23
2019-02-11T22:47:13.823Z,101023.33
2019-02-11T22:49:46.863Z,101031.16
2019-02-11T22:52:17.754Z,101026.94
2019-02-11T22:54:48.965Z,101030.92
2019-02-11T22:57:20.681Z,101033.70
2019-02-11T22:59:51.608Z,101031.02
2019-02-11T23:02:22.494Z,101043.77
2019-02-11T23:04:53.428Z,101047.31
2019-02-11T23:07:24.320Z,101049.98
2019-02-11T23:09:55.254Z,101067.06
2019-02-11T23:12:26.138Z,101069.85
2019-02-11T23:14:57.059Z,101062.69
2019-02-11T23:17:27.962Z,101072.84
2019-02-11T23:19:58.950Z,101073.94
2019-02-11T23:22:29.850Z,101082.67
2019-02-11T23:25:00.900Z,101082.31
2019-02-11T23:27:32.161Z,101084.69
2019-02-11T23:30:03.266Z,101085.72
2019-02-11T23:32:34.147Z,101092.45
2019-02-11T23:35:05.971Z,101089.56
2019-02-11T23:37:36.890Z,101098.29
2019-02-11T23:40:09.640Z,101099.65
2019-02-11T23:42:46.799Z,101101.53
2019-02-11T23:45:17.721Z,101102.97
2019-02-11T23:47:48.889Z,101105.19
2019-02-11T23:50:19.808Z,101100.46
2019-02-11T23:52:50.701Z,101110.45
2019-02-11T23:55:21.646Z,101112.23
2019-02-11T23:57:52.531Z,101105.77
